Time;durP1;ratioP1;P1;durP2;ratioP2;P2;SDS_P1;SDS_P2;PMS_P1;PMS_P2;Temp;Humidity;BMP_temperature;BMP_pressure;BME280_temperature;BME280_humidity;BME280_pressure;Samples;Min_cycle;Max_cycle;Signal;HPM_P1;HPM_P2
2022/03/26 00:02:27;;;;;;;;;;;;;;;;;;4999471;28;136604;-65
2022/03/26 00:04:53;;;;;;;;;;;;;;;;;;5009174;28;127421;-65
2022/03/26 00:07:20;;;;;;;;;;;;;;;;;;5008870;28;118466;-65
2022/03/26 00:09:47;;;;;;;;;;;;;;;;;;5009972;28;133296;-65
2022/03/26 00:12:13;;;;;;;;;;;;;;;;;;4999204;28;120237;-65
2022/03/26 00:14:39;;;;;;;;;;;;;;;;;;4999524;28;136085;-65
2022/03/26 00:17:06;;;;;;;;;;;;;;;;;;5000291;28;106381;-65
2022/03/26 00:19:32;;;;;;;;;;;;;;;;;;5004225;28;121213;-65
2022/03/26 00:21:59;;;;;;;;;;;;;;;;;;5008148;28;137215;-65
2022/03/26 00:24:25;;;;;;;;;;;;;;;;;;5004612;28;136448;-65
2022/03/26 00:26:52;;;;;;;;;;;;;;;;;;4999831;28;123698;-65
2022/03/26 00:29:18;;;;;;;;;;;;;;;;;;5002690;28;107298;-65
2022/03/26 00:31:45;;;;;;;;;;;;;;;;;;4984421;28;138996;-65
2022/03/26 00:34:11;;;;;;;;;;;;;;;;;;5006657;28;134867;-65
2022/03/26 00:36:38;;;;;;;;;;;;;;;;;;5008032;28;138438;-65
2022/03/26 00:39:04;;;;;;;;;;;;;;;;;;5006521;28;122019;-66
2022/03/26 00:41:30;;;;;;;;;;;;;;;;;;5007828;28;137108;-65
2022/03/26 00:43:57;;;;;;;;;;;;;;;;;;5000579;28;136732;-65
2022/03/26 00:46:23;;;;;;;;;;;;;;;;;;5008342;28;122857;-65
2022/03/26 00:48:50;;;;;;;;;;;;;;;;;;5006302;27;136636;-65
2022/03/26 00:51:16;;;;;;;;;;;;;;;;;;4990281;28;137336;-65
2022/03/26 00:53:42;;;;;;;;;;;;;;;;;;5006005;28;121012;-65
2022/03/26 00:56:09;;;;;;;;;;;;;;;;;;5000794;28;137537;-65
2022/03/26 00:58:35;;;;;;;;;;;;;;;;;;4998217;27;121967;-66
2022/03/26 01:01:01;;;;;;;;;;;;;;;;;;5007057;28;137296;-65
2022/03/26 01:03:28;;;;;;;;;;;;;;;;;;5001558;28;136402;-65
2022/03/26 01:05:54;;;;;;;;;;;;;;;;;;5001742;28;107199;-65
2022/03/26 01:08:22;;;;;;;;;;;;;;;;;;5001657;28;106697;-65
2022/03/26 01:10:48;;;;;;;;;;;;;;;;;;5004043;28;137637;-65
2022/03/26 01:13:14;;;;;;;;;;;;;;;;;;4997793;28;122836;-65
2022/03/26 01:15:41;;;;;;;;;;;;;;;;;;5009279;28;119243;-65
2022/03/26 01:18:07;;;;;;;;;;;;;;;;;;4997313;28;122213;-65
2022/03/26 01:20:34;;;;;;;;;;;;;;;;;;5006172;28;128981;-66
2022/03/26 01:23:00;;;;;;;;;;;;;;;;;;4996884;28;135398;-65
2022/03/26 01:25:26;;;;;;;;;;;;;;;;;;4998941;27;115917;-65
2022/03/26 01:27:53;;;;;;;;;;;;;;;;;;4988286;28;134258;-65
2022/03/26 01:30:19;;;;;;;;;;;;;;;;;;4975396;28;136313;-65
2022/03/26 01:32:46;;;;;;;;;;;;;;;;;;5009755;28;106603;-65
2022/03/26 01:35:12;;;;;;;;;;;;;;;;;;5003724;28;137026;-65
2022/03/26 01:37:39;;;;;;;;;;;;;;;;;;4989242;28;122730;-66
2022/03/26 01:40:05;;;;;;;;;;;;;;;;;;4998227;28;116983;-66
2022/03/26 01:42:31;;;;;;;;;;;;;;;;;;5008081;28;134712;-65
2022/03/26 01:44:58;;;;;;;;;;;;;;;;;;5000854;27;119201;-65
2022/03/26 01:47:24;;;;;;;;;;;;;;;;;;5008439;28;135368;-66
2022/03/26 01:49:51;;;;;;;;;;;;;;;;;;5004832;28;135440;-65
2022/03/26 01:52:17;;;;;;;;;;;;;;;;;;5006479;28;122024;-65
2022/03/26 01:54:43;;;;;;;;;;;;;;;;;;5004765;28;125062;-65
2022/03/26 01:57:13;;;;;;;;;;;;;;;;;;4997338;28;135234;-65
2022/03/26 01:59:39;;;;;;;;;;;;;;;;;;4995848;28;134888;-66
2022/03/26 02:02:05;;;;;;;;;;;;;;;;;;4989377;28;122874;-66
2022/03/26 02:04:34;;;;;;;;;;;;;;;;;;4986664;28;116009;-66
2022/03/26 02:07:01;;;;;;;;;;;;;;;;;;5004107;28;136678;-66
2022/03/26 02:09:33;;;;;;;;;;;;;;;;;;4995347;28;133552;-65
2022/03/26 02:11:59;;;;;;;;;;;;;;;;;;5000713;28;106295;-66
2022/03/26 02:14:25;;;;;;;;;;;;;;;;;;4988240;28;137008;-65
2022/03/26 02:16:52;;;;;;;;;;;;;;;;;;5003551;28;121942;-65
2022/03/26 02:19:20;;;;;;;;;;;;;;;;;;5007994;28;122617;-66
2022/03/26 02:21:49;;;;;;;;;;;;;;;;;;5007700;28;136812;-66
2022/03/26 02:24:15;;;;;;;;;;;;;;;;;;4997644;28;121705;-66
2022/03/26 02:26:41;;;;;;;;;;;;;;;;;;5008225;28;136297;-63
2022/03/26 02:29:08;;;;;;;;;;;;;;;;;;5005276;28;136166;-64
2022/03/26 02:31:34;;;;;;;;;;;;;;;;;;5007863;28;122490;-67
2022/03/26 02:34:01;;;;;;;;;;;;;;;;;;5008135;28;136959;-64
2022/03/26 02:36:27;;;;;;;;;;;;;;;;;;5000290;28;135367;-65
2022/03/26 02:38:53;;;;;;;;;;;;;;;;;;4999735;28;124419;-65
2022/03/26 02:41:19;;;;;;;;;;;;;;;;;;4999112;28;120854;-65
2022/03/26 02:43:46;;;;;;;;;;;;;;;;;;4991376;28;121594;-65
2022/03/26 02:46:12;;;;;;;;;;;;;;;;;;5008588;27;134967;-65
2022/03/26 02:48:39;;;;;;;;;;;;;;;;;;5011467;28;133839;-64
2022/03/26 02:51:06;;;;;;;;;;;;;;;;;;5006089;28;121961;-65
2022/03/26 02:53:32;;;;;;;;;;;;;;;;;;5005695;28;138713;-64
2022/03/26 02:55:59;;;;;;;;;;;;;;;;;;5008619;28;108226;-65
2022/03/26 02:58:25;;;;;;;;;;;;;;;;;;5004161;28;123730;-64
2022/03/26 03:00:52;;;;;;;;;;;;;;;;;;4998182;28;135161;-64
2022/03/26 03:03:18;;;;;;;;;;;;;;;;;;5010683;28;138295;-65
2022/03/26 03:05:48;;;;;;;;;;;;;;;;;;5005641;27;136442;-65
2022/03/26 03:08:14;;;;;;;;;;;;;;;;;;5003542;28;136538;-66
2022/03/26 03:10:41;;;;;;;;;;;;;;;;;;5009503;28;121911;-67
2022/03/26 03:13:07;;;;;;;;;;;;;;;;;;5004094;28;135071;-65
2022/03/26 03:15:34;;;;;;;;;;;;;;;;;;4997137;28;138557;-65
2022/03/26 03:18:00;;;;;;;;;;;;;;;;;;4998806;28;122971;-65
2022/03/26 03:20:27;;;;;;;;;;;;;;;;;;5005313;28;135715;-65
2022/03/26 03:22:53;;;;;;;;;;;;;;;;;;5001637;28;135681;-65
2022/03/26 03:25:19;;;;;;;;;;;;;;;;;;5000438;28;122769;-65
2022/03/26 03:27:46;;;;;;;;;;;;;;;;;;5000319;28;136223;-65
2022/03/26 03:30:12;;;;;;;;;;;;;;;;;;5008956;27;106909;-65
2022/03/26 03:32:38;;;;;;;;;;;;;;;;;;5001655;27;134307;-65
2022/03/26 03:35:05;;;;;;;;;;;;;;;;;;5004356;27;106653;-65
2022/03/26 03:37:31;;;;;;;;;;;;;;;;;;5000210;28;121453;-65
2022/03/26 03:39:59;;;;;;;;;;;;;;;;;;4993442;28;135484;-65
2022/03/26 03:42:26;;;;;;;;;;;;;;;;;;4973844;28;134099;-65
2022/03/26 03:44:52;;;;;;;;;;;;;;;;;;5014173;28;123141;-65
2022/03/26 03:47:19;;;;;;;;;;;;;;;;;;5000211;27;137613;-65
2022/03/26 03:49:45;;;;;;;;;;;;;;;;;;5002332;28;123068;-65
2022/03/26 03:52:11;;;;;;;;;;;;;;;;;;5001651;28;136469;-65
2022/03/26 03:54:38;;;;;;;;;;;;;;;;;;5001399;28;136004;-64
2022/03/26 03:57:04;;;;;;;;;;;;;;;;;;5007446;27;122636;-65
2022/03/26 03:59:30;;;;;;;;;;;;;;;;;;5008729;28;134176;-66
2022/03/26 04:01:57;;;;;;;;;;;;;;;;;;5009760;28;136285;-65
2022/03/26 04:04:24;;;;;;;;;;;;;;;;;;5004948;28;122360;-65
2022/03/26 04:06:50;;;;;;;;;;;;;;;;;;5006753;27;135375;-65
2022/03/26 04:09:16;;;;;;;;;;;;;;;;;;4998376;28;113208;-64
2022/03/26 04:11:43;;;;;;;;;;;;;;;;;;5006843;28;135510;-65
2022/03/26 04:14:09;;;;;;;;;;;;;;;;;;5006819;28;137104;-65
2022/03/26 04:16:35;;;;;;;;;;;;;;;;;;5006487;28;123345;-65
2022/03/26 04:19:02;;;;;;;;;;;;;;;;;;5006492;28;136492;-64
2022/03/26 04:21:28;;;;;;;;;;;;;;;;;;5004129;28;135739;-64
2022/03/26 04:23:54;;;;;;;;;;;;;;;;;;5009717;28;106788;-65
2022/03/26 04:26:21;;;;;;;;;;;;;;;;;;5004803;27;134394;-65
2022/03/26 04:28:47;;;;;;;;;;;;;;;;;;5004322;28;136065;-65
2022/03/26 04:31:13;;;;;;;;;;;;;;;;;;5009903;28;136468;-65
2022/03/26 04:33:40;;;;;;;;;;;;;;;;;;5004113;28;135512;-65
2022/03/26 04:36:06;;;;;;;;;;;;;;;;;;5001928;28;122619;-65
2022/03/26 04:38:33;;;;;;;;;;;;;;;;;;5007565;28;123512;-64
2022/03/26 04:40:59;;;;;;;;;;;;;;;;;;5001825;28;135313;-64
2022/03/26 04:43:26;;;;;;;;;;;;;;;;;;4996993;28;106797;-64
2022/03/26 04:45:52;;;;;;;;;;;;;;;;;;5007083;28;135980;-64
2022/03/26 04:48:18;;;;;;;;;;;;;;;;;;5006166;28;135640;-64
2022/03/26 04:50:45;;;;;;;;;;;;;;;;;;5006375;28;106741;-64
2022/03/26 04:53:11;;;;;;;;;;;;;;;;;;5007550;28;137483;-64
2022/03/26 04:55:38;;;;;;;;;;;;;;;;;;4995173;28;123800;-65
2022/03/26 04:58:04;;;;;;;;;;;;;;;;;;4999526;28;137606;-65
2022/03/26 05:00:30;;;;;;;;;;;;;;;;;;5009210;28;136368;-64
2022/03/26 05:02:57;;;;;;;;;;;;;;;;;;4998829;28;122454;-64
2022/03/26 05:05:23;;;;;;;;;;;;;;;;;;4996441;28;136237;-64
2022/03/26 05:07:52;;;;;;;;;;;;;;;;;;5009375;28;136451;-66
2022/03/26 05:10:18;;;;;;;;;;;;;;;;;;5003247;28;122498;-65
2022/03/26 05:12:45;;;;;;;;;;;;;;;;;;5008642;28;135101;-66
2022/03/26 05:15:11;;;;;;;;;;;;;;;;;;4996393;28;117593;-66
2022/03/26 05:17:37;;;;;;;;;;;;;;;;;;5007673;28;134812;-66
2022/03/26 05:20:04;;;;;;;;;;;;;;;;;;4996846;28;132698;-65
2022/03/26 05:22:30;;;;;;;;;;;;;;;;;;5003153;28;122737;-65
2022/03/26 05:24:57;;;;;;;;;;;;;;;;;;5001396;28;137368;-65
2022/03/26 05:27:23;;;;;;;;;;;;;;;;;;5002122;27;136388;-65
2022/03/26 05:29:49;;;;;;;;;;;;;;;;;;5006584;28;124193;-65
2022/03/26 05:32:16;;;;;;;;;;;;;;;;;;5002333;28;119282;-65
2022/03/26 05:34:42;;;;;;;;;;;;;;;;;;5009288;28;105961;-65
2022/03/26 05:37:08;;;;;;;;;;;;;;;;;;5000467;28;135072;-65
2022/03/26 05:39:35;;;;;;;;;;;;;;;;;;4995703;28;135765;-65
2022/03/26 05:42:01;;;;;;;;;;;;;;;;;;5009644;28;106709;-65
2022/03/26 05:44:27;;;;;;;;;;;;;;;;;;5003096;28;134346;-64
2022/03/26 05:46:54;;;;;;;;;;;;;;;;;;4998629;27;137360;-65
2022/03/26 05:49:21;;;;;;;;;;;;;;;;;;4987270;28;119962;-65
2022/03/26 05:51:48;;;;;;;;;;;;;;;;;;4999092;28;123904;-67
2022/03/26 05:54:14;;;;;;;;;;;;;;;;;;4998342;28;136040;-65
2022/03/26 05:56:40;;;;;;;;;;;;;;;;;;5003617;28;136250;-64
2022/03/26 05:59:06;;;;;;;;;;;;;;;;;;5006459;28;136617;-65
2022/03/26 06:01:33;;;;;;;;;;;;;;;;;;4994120;28;123114;-65
2022/03/26 06:03:59;;;;;;;;;;;;;;;;;;5008923;27;121336;-65
2022/03/26 06:06:26;;;;;;;;;;;;;;;;;;5005051;28;137356;-65
2022/03/26 06:08:52;;;;;;;;;;;;;;;;;;4998716;28;123165;-65
2022/03/26 06:11:18;;;;;;;;;;;;;;;;;;5009665;28;136396;-65
2022/03/26 06:13:45;;;;;;;;;;;;;;;;;;5010733;28;137598;-65
2022/03/26 06:16:11;;;;;;;;;;;;;;;;;;5008191;28;123111;-65
2022/03/26 06:18:38;;;;;;;;;;;;;;;;;;4992054;28;134624;-65
2022/03/26 06:21:07;;;;;;;;;;;;;;;;;;5009024;27;114644;-66
2022/03/26 06:23:33;;;;;;;;;;;;;;;;;;5002149;28;112327;-65
2022/03/26 06:25:59;;;;;;;;;;;;;;;;;;5000555;28;135424;-66
2022/03/26 06:28:26;;;;;;;;;;;;;;;;;;5007000;28;121856;-66
2022/03/26 06:30:53;;;;;;;;;;;;;;;;;;5011184;28;133812;-65
2022/03/26 06:33:19;;;;;;;;;;;;;;;;;;5009394;28;136366;-65
2022/03/26 06:35:46;;;;;;;;;;;;;;;;;;5008627;28;122511;-66
2022/03/26 06:38:16;;;;;;;;;;;;;;;;;;5010595;27;135278;-66
2022/03/26 06:40:43;;;;;;;;;;;;;;;;;;5004247;27;121691;-66
2022/03/26 06:43:09;;;;;;;;;;;;;;;;;;4995274;28;136553;-66
2022/03/26 06:45:35;;;;;;;;;;;;;;;;;;5002639;28;115437;-66
2022/03/26 06:48:02;;;;;;;;;;;;;;;;;;5003298;28;121196;-66
2022/03/26 06:50:28;;;;;;;;;;;;;;;;;;4992942;28;136494;-66
2022/03/26 06:52:55;;;;;;;;;;;;;;;;;;5008979;28;136347;-66
2022/03/26 06:55:21;;;;;;;;;;;;;;;;;;5008339;27;123158;-67
2022/03/26 06:57:49;;;;;;;;;;;;;;;;;;5006466;28;134623;-66
2022/03/26 07:00:15;;;;;;;;;;;;;;;;;;5005056;28;135966;-67
2022/03/26 07:02:42;;;;;;;;;;;;;;;;;;5005051;28;136614;-66
2022/03/26 07:05:08;;;;;;;;;;;;;;;;;;5002076;28;135731;-66
2022/03/26 07:07:35;;;;;;;;;;;;;;;;;;5001850;28;124173;-65
2022/03/26 07:10:01;;;;;;;;;;;;;;;;;;4997579;28;135826;-71
2022/03/26 07:12:27;;;;;;;;;;;;;;;;;;4999576;27;137872;-67
2022/03/26 07:14:54;;;;;;;;;;;;;;;;;;5009325;28;124133;-66
2022/03/26 07:17:20;;;;;;;;;;;;;;;;;;5008928;28;135726;-66
2022/03/26 07:19:46;;;;;;;;;;;;;;;;;;5006424;28;136661;-64
2022/03/26 07:22:13;;;;;;;;;;;;;;;;;;5009484;28;118931;-65
2022/03/26 07:24:39;;;;;;;;;;;;;;;;;;4998606;28;137024;-64
2022/03/26 07:27:06;;;;;;;;;;;;;;;;;;5005335;28;121877;-62
2022/03/26 07:29:38;;;;;;;;;;;;;;;;;;4993823;28;136468;-66
2022/03/26 07:32:05;;;;;;;;;;;;;;;;;;4998649;27;136294;-66
2022/03/26 07:34:32;;;;;;;;;;;;;;;;;;5005195;28;106848;-65
2022/03/26 07:36:58;;;;;;;;;;;;;;;;;;5003182;28;135930;-65
2022/03/26 07:39:25;;;;;;;;;;;;;;;;;;5002589;28;136194;-64
2022/03/26 07:41:51;;;;;;;;;;;;;;;;;;4986005;28;122161;-70
2022/03/26 07:44:18;;;;;;;;;;;;;;;;;;4981697;28;109065;-65
2022/03/26 07:46:44;;;;;;;;;;;;;;;;;;4989253;28;123534;-67
2022/03/26 07:49:10;;;;;;;;;;;;;;;;;;4986695;28;129631;-66
2022/03/26 07:51:37;;;;;;;;;;;;;;;;;;5007870;28;136916;-65
2022/03/26 07:54:03;;;;;;;;;;;;;;;;;;5003502;28;122808;-68
2022/03/26 07:56:29;;;;;;;;;;;;;;;;;;5004777;27;134596;-69
2022/03/26 07:58:56;;;;;;;;;;;;;;;;;;5005994;28;136126;-66
2022/03/26 08:01:22;;;;;;;;;;;;;;;;;;5000436;28;106336;-66
2022/03/26 08:03:53;;;;;;;;;;;;;;;;;;5012587;28;134527;-68
2022/03/26 08:06:21;;;;;;;;;;;;;;;;;;5006471;28;122998;-67
2022/03/26 08:08:47;;;;;;;;;;;;;;;;;;4999805;27;136991;-72
2022/03/26 08:11:13;;;;;;;;;;;;;;;;;;4993345;27;125927;-65
2022/03/26 08:13:39;;;;;;;;;;;;;;;;;;5007288;28;121488;-66
2022/03/26 08:16:09;;;;;;;;;;;;;;;;;;5007025;28;135057;-64
2022/03/26 08:18:35;;;;;;;;;;;;;;;;;;4989082;28;129018;-66
2022/03/26 08:21:02;;;;;;;;;;;;;;;;;;5003735;27;125734;-66
2022/03/26 08:23:28;;;;;;;;;;;;;;;;;;5005184;28;135184;-69
2022/03/26 08:28:40;;;;;;;;;;;;;;;;;;5008342;28;135130;-72
2022/03/26 08:31:10;;;;;;;;;;;;;;;;;;5004945;28;130478;-67
2022/03/26 08:33:37;;;;;;;;;;;;;;;;;;5002814;28;118345;-68
2022/03/26 08:36:03;;;;;;;;;;;;;;;;;;5000698;28;136401;-67
2022/03/26 08:38:29;;;;;;;;;;;;;;;;;;5006852;28;137442;-66
2022/03/26 08:40:55;;;;;;;;;;;;;;;;;;5000067;28;120819;-66
2022/03/26 08:43:22;;;;;;;;;;;;;;;;;;4992262;28;136176;-66
2022/03/26 08:45:48;;;;;;;;;;;;;;;;;;4997477;28;136241;-68
2022/03/26 08:48:15;;;;;;;;;;;;;;;;;;4997305;28;106242;-68
2022/03/26 08:50:42;;;;;;;;;;;;;;;;;;5001157;28;136065;-67
2022/03/26 08:53:09;;;;;;;;;;;;;;;;;;4999310;28;122060;-67
2022/03/26 08:55:35;;;;;;;;;;;;;;;;;;5004114;28;137048;-69
2022/03/26 08:58:02;;;;;;;;;;;;;;;;;;5001574;28;136791;-69
2022/03/26 09:00:28;;;;;;;;;;;;;;;;;;4996394;28;106234;-67
2022/03/26 09:02:55;;;;;;;;;;;;;;;;;;4999365;28;137237;-72
2022/03/26 09:05:22;;;;;;;;;;;;;;;;;;5005123;28;137817;-66
2022/03/26 09:07:48;;;;;;;;;;;;;;;;;;5005632;28;117752;-67
2022/03/26 09:10:15;;;;;;;;;;;;;;;;;;5006263;28;136525;-67
2022/03/26 09:12:41;;;;;;;;;;;;;;;;;;5006937;28;121709;-74
2022/03/26 09:15:08;;;;;;;;;;;;;;;;;;4996322;28;124894;-68
2022/03/26 09:17:34;;;;;;;;;;;;;;;;;;5005316;28;137900;-67
2022/03/26 09:20:00;;;;;;;;;;;;;;;;;;4987511;28;123295;-68
2022/03/26 09:22:26;;;;;;;;;;;;;;;;;;5004901;28;135417;-68
2022/03/26 09:24:53;;;;;;;;;;;;;;;;;;5001555;28;136746;-67
2022/03/26 09:27:19;;;;;;;;;;;;;;;;;;4997806;28;119222;-68
2022/03/26 09:29:46;;;;;;;;;;;;;;;;;;5005234;28;112670;-67
2022/03/26 09:32:12;;;;;;;;;;;;;;;;;;5005680;27;136597;-68
2022/03/26 09:34:38;;;;;;;;;;;;;;;;;;5004760;28;106568;-67
2022/03/26 09:37:05;;;;;;;;;;;;;;;;;;5002592;28;135458;-67
2022/03/26 09:39:31;;;;;;;;;;;;;;;;;;4990156;28;122580;-67
2022/03/26 09:41:57;;;;;;;;;;;;;;;;;;5002496;28;135297;-69
2022/03/26 09:44:24;;;;;;;;;;;;;;;;;;4994109;28;135648;-68
2022/03/26 09:46:50;;;;;;;;;;;;;;;;;;4997764;28;123173;-69
2022/03/26 09:49:16;;;;;;;;;;;;;;;;;;4997922;28;124611;-68
2022/03/26 09:51:43;;;;;;;;;;;;;;;;;;5001048;28;136857;-68
2022/03/26 09:54:11;;;;;;;;;;;;;;;;;;4996223;28;115474;-67
2022/03/26 09:56:37;;;;;;;;;;;;;;;;;;4994744;28;136585;-69
2022/03/26 09:59:04;;;;;;;;;;;;;;;;;;4996644;28;122034;-69
2022/03/26 10:01:30;;;;;;;;;;;;;;;;;;4992091;28;136547;-66
2022/03/26 10:03:57;;;;;;;;;;;;;;;;;;5000717;28;137449;-67
2022/03/26 10:06:23;;;;;;;;;;;;;;;;;;4997903;27;122936;-69
2022/03/26 10:08:49;;;;;;;;;;;;;;;;;;5000725;28;134627;-68
2022/03/26 10:11:16;;;;;;;;;;;;;;;;;;4995826;28;115630;-68
2022/03/26 10:13:48;;;;;;;;;;;;;;;;;;5006678;28;123606;-68
2022/03/26 10:16:14;;;;;;;;;;;;;;;;;;4998270;28;136229;-68
2022/03/26 10:18:40;;;;;;;;;;;;;;;;;;4992874;28;121236;-69
2022/03/26 10:21:07;;;;;;;;;;;;;;;;;;5000783;27;137410;-69
2022/03/26 10:23:34;;;;;;;;;;;;;;;;;;5001617;28;138769;-68
2022/03/26 10:26:00;;;;;;;;;;;;;;;;;;5004953;27;123954;-68
2022/03/26 10:28:26;;;;;;;;;;;;;;;;;;4995377;28;137045;-68
2022/03/26 10:33:38;;;;;;;;;;;;;;;;;;5002603;28;121495;-67
2022/03/26 10:36:04;;;;;;;;;;;;;;;;;;5006023;28;135802;-67
2022/03/26 10:38:30;;;;;;;;;;;;;;;;;;5000369;27;123579;-67
2022/03/26 10:41:01;;;;;;;;;;;;;;;;;;5002632;28;137280;-68
2022/03/26 10:43:28;;;;;;;;;;;;;;;;;;5003635;27;114033;-68
2022/03/26 10:45:55;;;;;;;;;;;;;;;;;;5006777;28;122885;-68
2022/03/26 10:48:21;;;;;;;;;;;;;;;;;;5009067;28;135259;-68
2022/03/26 10:50:48;;;;;;;;;;;;;;;;;;5005435;28;137748;-68
2022/03/26 10:53:14;;;;;;;;;;;;;;;;;;5004685;27;123222;-68
2022/03/26 10:55:41;;;;;;;;;;;;;;;;;;5010094;28;135934;-68
2022/03/26 10:58:07;;;;;;;;;;;;;;;;;;5002446;28;126165;-68
2022/03/26 11:00:34;;;;;;;;;;;;;;;;;;5008763;28;136663;-68
2022/03/26 11:03:00;;;;;;;;;;;;;;;;;;5010419;28;137047;-70
2022/03/26 11:05:27;;;;;;;;;;;;;;;;;;4999284;28;121947;-68
2022/03/26 11:07:53;;;;;;;;;;;;;;;;;;5004818;27;137001;-68
2022/03/26 11:10:20;;;;;;;;;;;;;;;;;;4995675;28;133073;-69
2022/03/26 11:12:46;;;;;;;;;;;;;;;;;;5006655;28;125624;-69
2022/03/26 11:15:12;;;;;;;;;;;;;;;;;;5004571;28;131058;-68
2022/03/26 11:17:39;;;;;;;;;;;;;;;;;;5010448;28;135356;-69
2022/03/26 11:20:05;;;;;;;;;;;;;;;;;;5006119;28;123539;-69
2022/03/26 11:22:32;;;;;;;;;;;;;;;;;;5010187;28;136407;-69
2022/03/26 11:24:58;;;;;;;;;;;;;;;;;;4993593;28;121986;-69
2022/03/26 11:27:24;;;;;;;;;;;;;;;;;;4990007;28;137143;-68
2022/03/26 11:29:51;;;;;;;;;;;;;;;;;;4995304;28;110155;-69
2022/03/26 11:32:18;;;;;;;;;;;;;;;;;;5003966;27;123311;-69
2022/03/26 11:34:46;;;;;;;;;;;;;;;;;;5007294;27;137163;-68
2022/03/26 11:37:12;;;;;;;;;;;;;;;;;;4998955;28;129505;-68
2022/03/26 11:39:38;;;;;;;;;;;;;;;;;;4991751;28;121679;-68
2022/03/26 11:42:05;;;;;;;;;;;;;;;;;;5003994;28;136396;-67
2022/03/26 11:44:31;;;;;;;;;;;;;;;;;;4996173;28;118278;-68
2022/03/26 11:50:41;;;;;;;;;;;;;;;;;;5003232;28;135665;-68
2022/03/26 11:52:32;;;;;;;;;;;;;;;;;;4997581;27;123012;-68
2022/03/26 11:54:58;;;;;;;;;;;;;;;;;;5000436;27;136771;-67
2022/03/26 11:57:24;;;;;;;;;;;;;;;;;;5006593;27;138366;-68
2022/03/26 11:59:51;;;;;;;;;;;;;;;;;;4999154;27;123057;-67
2022/03/26 12:02:17;;;;;;;;;;;;;;;;;;5008415;28;136358;-67
2022/03/26 12:04:43;;;;;;;;;;;;;;;;;;5004945;28;123178;-67
2022/03/26 12:07:10;;;;;;;;;;;;;;;;;;5004252;27;137009;-67
2022/03/26 12:09:36;;;;;;;;;;;;;;;;;;4993203;27;136600;-67
2022/03/26 12:12:03;;;;;;;;;;;;;;;;;;5003660;27;123359;-67
2022/03/26 12:14:29;;;;;;;;;;;;;;;;;;5008503;27;106230;-67
2022/03/26 12:16:55;;;;;;;;;;;;;;;;;;5007618;28;134151;-67
2022/03/26 12:19:22;;;;;;;;;;;;;;;;;;4998549;28;121082;-67
2022/03/26 12:21:48;;;;;;;;;;;;;;;;;;5002020;27;135181;-67
2022/03/26 12:24:15;;;;;;;;;;;;;;;;;;5009831;27;137084;-68
2022/03/26 12:26:41;;;;;;;;;;;;;;;;;;4994813;27;136457;-67
2022/03/26 12:29:07;;;;;;;;;;;;;;;;;;4993734;28;137007;-67
2022/03/26 12:31:34;;;;;;;;;;;;;;;;;;4999736;27;122611;-67
2022/03/26 12:34:00;;;;;;;;;;;;;;;;;;5005894;27;133786;-69
2022/03/26 12:36:26;;;;;;;;;;;;;;;;;;5007329;28;138054;-69
2022/03/26 12:38:53;;;;;;;;;;;;;;;;;;5000221;27;122625;-68
2022/03/26 12:41:19;;;;;;;;;;;;;;;;;;5003534;27;107276;-68
2022/03/26 12:43:45;;;;;;;;;;;;;;;;;;5003380;27;122973;-68
2022/03/26 12:46:13;;;;;;;;;;;;;;;;;;5001862;27;121635;-68
2022/03/26 12:48:39;;;;;;;;;;;;;;;;;;5001507;27;137074;-69
2022/03/26 12:51:06;;;;;;;;;;;;;;;;;;5002758;27;123739;-68
2022/03/26 12:53:32;;;;;;;;;;;;;;;;;;5005483;28;135909;-67
2022/03/26 12:55:58;;;;;;;;;;;;;;;;;;5004236;28;137084;-65
2022/03/26 13:01:09;;;;;;;;;;;;;;;;;;5007568;28;135884;-67
2022/03/26 13:03:36;;;;;;;;;;;;;;;;;;5004796;28;112580;-68
2022/03/26 13:06:02;;;;;;;;;;;;;;;;;;5004956;28;123903;-68
2022/03/26 13:08:29;;;;;;;;;;;;;;;;;;5010241;27;136964;-68
2022/03/26 13:10:55;;;;;;;;;;;;;;;;;;5005980;28;106443;-68
2022/03/26 13:13:22;;;;;;;;;;;;;;;;;;4981467;28;135903;-68
2022/03/26 13:15:48;;;;;;;;;;;;;;;;;;5005998;28;136359;-67
2022/03/26 13:18:14;;;;;;;;;;;;;;;;;;5007592;28;123916;-68
2022/03/26 13:20:41;;;;;;;;;;;;;;;;;;5005296;27;127130;-68
2022/03/26 13:23:07;;;;;;;;;;;;;;;;;;5005661;28;137306;-68
2022/03/26 13:25:34;;;;;;;;;;;;;;;;;;5006234;27;107945;-68
2022/03/26 13:28:00;;;;;;;;;;;;;;;;;;5005420;28;116944;-68
2022/03/26 13:30:26;;;;;;;;;;;;;;;;;;5009297;28;136985;-68
2022/03/26 13:32:55;;;;;;;;;;;;;;;;;;4999454;27;137051;-68
2022/03/26 13:35:22;;;;;;;;;;;;;;;;;;4998577;28;136952;-70
2022/03/26 13:37:48;;;;;;;;;;;;;;;;;;5003627;28;123215;-67
2022/03/26 13:40:15;;;;;;;;;;;;;;;;;;4994977;28;119127;-68
2022/03/26 13:42:43;;;;;;;;;;;;;;;;;;5001760;28;134752;-68
2022/03/26 13:45:10;;;;;;;;;;;;;;;;;;5001815;28;123123;-69
2022/03/26 13:47:36;;;;;;;;;;;;;;;;;;5004552;28;134130;-68
2022/03/26 13:50:02;;;;;;;;;;;;;;;;;;5006576;28;137643;-68
2022/03/26 13:52:29;;;;;;;;;;;;;;;;;;5010207;28;122339;-68
2022/03/26 13:54:55;;;;;;;;;;;;;;;;;;4995325;27;126146;-68
2022/03/26 13:57:21;;;;;;;;;;;;;;;;;;5003698;28;123125;-68
2022/03/26 13:59:48;;;;;;;;;;;;;;;;;;4994295;28;136938;-67
2022/03/26 14:02:14;;;;;;;;;;;;;;;;;;5004697;28;137441;-68
2022/03/26 14:04:42;;;;;;;;;;;;;;;;;;5005547;28;120674;-68
2022/03/26 14:07:09;;;;;;;;;;;;;;;;;;5002106;28;136975;-68
2022/03/26 14:09:35;;;;;;;;;;;;;;;;;;5005118;28;138481;-67
2022/03/26 14:12:03;;;;;;;;;;;;;;;;;;5003011;27;123499;-67
2022/03/26 14:14:29;;;;;;;;;;;;;;;;;;4998484;27;134678;-67
2022/03/26 14:16:56;;;;;;;;;;;;;;;;;;4995862;27;123229;-67
2022/03/26 14:19:22;;;;;;;;;;;;;;;;;;5001630;28;136340;-68
2022/03/26 14:21:50;;;;;;;;;;;;;;;;;;5008755;28;131182;-66
2022/03/26 14:24:16;;;;;;;;;;;;;;;;;;5007848;28;122810;-67
2022/03/26 14:26:42;;;;;;;;;;;;;;;;;;5008965;28;131647;-67
2022/03/26 14:29:09;;;;;;;;;;;;;;;;;;5003270;28;136010;-69
2022/03/26 14:31:35;;;;;;;;;;;;;;;;;;5011319;28;123043;-66
2022/03/26 14:34:02;;;;;;;;;;;;;;;;;;5005954;28;136887;-66
2022/03/26 14:36:47;;;;;;;;;;;;;;;;;;4997860;28;123828;-67
2022/03/26 14:39:14;;;;;;;;;;;;;;;;;;5006714;28;138303;-67
2022/03/26 14:41:40;;;;;;;;;;;;;;;;;;5008753;28;137556;-67
2022/03/26 14:44:06;;;;;;;;;;;;;;;;;;5008906;28;123052;-67
2022/03/26 14:46:33;;;;;;;;;;;;;;;;;;5006319;28;137049;-67
2022/03/26 14:49:00;;;;;;;;;;;;;;;;;;4995023;28;138418;-66
2022/03/26 14:51:26;;;;;;;;;;;;;;;;;;5006394;28;124478;-67
2022/03/26 14:53:52;;;;;;;;;;;;;;;;;;4993859;28;137801;-66
2022/03/26 14:56:19;;;;;;;;;;;;;;;;;;5004637;28;138555;-66
2022/03/26 14:58:45;;;;;;;;;;;;;;;;;;4997172;28;138552;-67
2022/03/26 15:01:12;;;;;;;;;;;;;;;;;;5008645;27;122571;-67
2022/03/26 15:03:38;;;;;;;;;;;;;;;;;;5000035;28;122836;-66
2022/03/26 15:06:05;;;;;;;;;;;;;;;;;;5000879;28;135942;-67
2022/03/26 15:08:31;;;;;;;;;;;;;;;;;;5005694;28;138766;-66
2022/03/26 15:10:59;;;;;;;;;;;;;;;;;;5007174;28;123300;-66
2022/03/26 15:13:25;;;;;;;;;;;;;;;;;;5009620;28;137382;-67
2022/03/26 15:15:52;;;;;;;;;;;;;;;;;;5001826;28;136389;-67
2022/03/26 15:18:20;;;;;;;;;;;;;;;;;;5011631;27;107202;-66
2022/03/26 15:20:46;;;;;;;;;;;;;;;;;;5005905;28;138213;-67
2022/03/26 15:23:13;;;;;;;;;;;;;;;;;;4987612;28;123884;-67
2022/03/26 15:25:39;;;;;;;;;;;;;;;;;;4986043;28;130171;-67
2022/03/26 15:28:05;;;;;;;;;;;;;;;;;;5001626;27;136162;-67
2022/03/26 15:30:32;;;;;;;;;;;;;;;;;;4990962;28;122780;-67
2022/03/26 15:32:59;;;;;;;;;;;;;;;;;;5008356;28;107736;-67
2022/03/26 15:35:25;;;;;;;;;;;;;;;;;;4999205;27;133785;-67
2022/03/26 15:37:52;;;;;;;;;;;;;;;;;;5001546;28;125427;-67
2022/03/26 15:40:18;;;;;;;;;;;;;;;;;;5002940;28;138867;-67
2022/03/26 15:42:44;;;;;;;;;;;;;;;;;;5009708;28;107895;-67
2022/03/26 15:45:11;;;;;;;;;;;;;;;;;;4996621;28;137757;-67
2022/03/26 15:47:37;;;;;;;;;;;;;;;;;;4989676;28;136721;-68
2022/03/26 15:50:05;;;;;;;;;;;;;;;;;;4994869;28;124539;-67
2022/03/26 15:52:36;;;;;;;;;;;;;;;;;;4999510;27;137874;-67
2022/03/26 15:55:02;;;;;;;;;;;;;;;;;;5000522;28;138965;-67
2022/03/26 15:57:28;;;;;;;;;;;;;;;;;;4998477;27;124786;-65
2022/03/26 15:59:55;;;;;;;;;;;;;;;;;;5005347;28;137741;-67
2022/03/26 16:02:21;;;;;;;;;;;;;;;;;;5010874;28;107752;-67
2022/03/26 16:04:47;;;;;;;;;;;;;;;;;;5001023;28;119818;-68
2022/03/26 16:07:14;;;;;;;;;;;;;;;;;;4996709;28;137235;-67
2022/03/26 16:09:40;;;;;;;;;;;;;;;;;;5005622;28;123584;-68
2022/03/26 16:12:07;;;;;;;;;;;;;;;;;;5005961;27;139003;-63
2022/03/26 16:14:33;;;;;;;;;;;;;;;;;;4989094;28;113795;-68
2022/03/26 16:17:01;;;;;;;;;;;;;;;;;;5006517;28;123548;-70
2022/03/26 16:19:27;;;;;;;;;;;;;;;;;;5000617;28;109816;-66
2022/03/26 16:21:54;;;;;;;;;;;;;;;;;;4988406;28;127191;-66
2022/03/26 16:24:22;;;;;;;;;;;;;;;;;;4998082;28;120839;-68
2022/03/26 16:26:48;;;;;;;;;;;;;;;;;;5002108;27;136927;-67
2022/03/26 16:29:14;;;;;;;;;;;;;;;;;;5000618;28;115086;-66
2022/03/26 16:31:41;;;;;;;;;;;;;;;;;;5003177;28;130293;-66
2022/03/26 16:34:07;;;;;;;;;;;;;;;;;;4999036;27;140001;-66
2022/03/26 16:36:34;;;;;;;;;;;;;;;;;;4998790;27;124018;-66